Time;durP1;ratioP1;P1;durP2;ratioP2;P2;SDS_P1;SDS_P2;PMS_P1;PMS_P2;Temp;Humidity;BMP_temperature;BMP_pressure;BME280_temperature;BME280_humidity;BME280_pressure;Samples;Min_cycle;Max_cycle;Signal;HPM_P1;HPM_P2
2023/10/12 00:14:43;;;;;;;0.30;0.30;;;;;;;;;;6130904;23;20199;-94
2023/10/12 00:17:12;;;;;;;0.30;0.30;;;;;;;;;;6129628;23;20202;-91
2023/10/12 00:19:41;;;;;;;0.33;0.33;;;;;;;;;;6133223;23;20286;-91
2023/10/12 00:22:11;;;;;;;0.40;0.40;;;;;;;;;;6129059;23;20358;-92
2023/10/12 00:24:41;;;;;;;0.40;0.40;;;;;;;;;;6134523;23;20253;-92
2023/10/12 00:27:13;;;;;;;0.40;0.40;;;;;;;;;;6132245;23;20183;-92
2023/10/12 00:29:44;;;;;;;0.40;0.40;;;;;;;;;;6126657;23;20215;-91
2023/10/12 00:32:14;;;;;;;0.40;0.40;;;;;;;;;;6127228;23;20198;-92
2023/10/12 00:34:47;;;;;;;0.40;0.40;;;;;;;;;;6126072;23;20195;-91
2023/10/12 00:37:16;;;;;;;0.40;0.40;;;;;;;;;;6128203;23;20193;-90
2023/10/12 00:39:59;;;;;;;0.30;0.30;;;;;;;;;;6127239;23;20176;-91
2023/10/12 00:42:33;;;;;;;0.40;0.40;;;;;;;;;;6127322;23;20215;-92
2023/10/12 00:45:12;;;;;;;0.40;0.40;;;;;;;;;;6125551;23;20239;-91
2023/10/12 00:47:44;;;;;;;0.40;0.40;;;;;;;;;;6125877;23;20171;-92
2023/10/12 00:50:14;;;;;;;0.40;0.40;;;;;;;;;;6125138;23;20277;-93
2023/10/12 00:52:55;;;;;;;0.30;0.30;;;;;;;;;;6124616;23;20175;-93
2023/10/12 00:55:35;;;;;;;0.40;0.40;;;;;;;;;;6125047;23;20193;-92
2023/10/12 00:58:08;;;;;;;0.30;0.30;;;;;;;;;;6125579;23;20177;-92
2023/10/12 01:00:45;;;;;;;0.30;0.30;;;;;;;;;;6126493;23;20185;-92
2023/10/12 01:03:31;;;;;;;0.30;0.30;;;;;;;;;;6130733;23;20183;-92
2023/10/12 01:09:18;;;;;;;0.37;0.37;;;;;;;;;;6013132;23;20375;-93
2023/10/12 01:11:53;;;;;;;0.40;0.40;;;;;;;;;;6118609;23;20179;-93
2023/10/12 01:14:26;;;;;;;0.30;0.30;;;;;;;;;;6124882;23;20306;-92
2023/10/12 01:16:57;;;;;;;0.40;0.40;;;;;;;;;;6125129;23;20179;-91
2023/10/12 01:19:33;;;;;;;0.40;0.40;;;;;;;;;;6124340;23;20198;-93
2023/10/12 01:22:12;;;;;;;0.40;0.40;;;;;;;;;;6123793;23;20202;-91
2023/10/12 01:24:57;;;;;;;0.30;0.30;;;;;;;;;;6123140;23;20172;-92
2023/10/12 01:27:26;;;;;;;0.37;0.37;;;;;;;;;;6122059;23;20175;-92
2023/10/12 01:30:11;;;;;;;0.40;0.40;;;;;;;;;;6122923;23;20233;-93
2023/10/12 01:32:42;;;;;;;0.40;0.40;;;;;;;;;;6132245;23;20173;-92
2023/10/12 01:35:13;;;;;;;0.40;0.40;;;;;;;;;;6184247;23;20277;-92
2023/10/12 01:37:47;;;;;;;0.40;0.40;;;;;;;;;;6184142;23;20212;-91
2023/10/12 01:40:21;;;;;;;0.40;0.40;;;;;;;;;;6184418;23;20290;-93
2023/10/12 01:42:56;;;;;;;0.30;0.30;;;;;;;;;;6185139;23;20258;-92
2023/10/12 01:45:40;;;;;;;0.40;0.40;;;;;;;;;;6184165;23;20219;-91
2023/10/12 01:48:12;;;;;;;0.40;0.40;;;;;;;;;;6184440;23;20176;-91
2023/10/12 01:50:41;;;;;;;0.40;0.40;;;;;;;;;;6184630;23;20248;-92
2023/10/12 01:53:24;;;;;;;0.40;0.40;;;;;;;;;;6184783;23;20173;-93
2023/10/12 01:55:53;;;;;;;0.40;0.40;;;;;;;;;;6183819;23;20243;-92
2023/10/12 01:58:27;;;;;;;0.30;0.30;;;;;;;;;;6185339;23;20209;-93
2023/10/12 02:01:04;;;;;;;0.33;0.33;;;;;;;;;;6185269;23;20254;-93
2023/10/12 02:03:37;;;;;;;0.30;0.30;;;;;;;;;;6185084;23;20261;-92
2023/10/12 02:06:13;;;;;;;0.30;0.30;;;;;;;;;;6184262;23;20171;-93
2023/10/12 02:08:52;;;;;;;0.30;0.30;;;;;;;;;;6184923;23;20230;-92
2023/10/12 02:11:36;;;;;;;0.30;0.30;;;;;;;;;;6186184;23;20197;-90
2023/10/12 02:14:05;;;;;;;0.40;0.40;;;;;;;;;;6186395;23;20173;-93
2023/10/12 02:16:37;;;;;;;0.30;0.30;;;;;;;;;;6186837;23;20173;-94
2023/10/12 02:19:08;;;;;;;0.30;0.30;;;;;;;;;;6185836;23;20275;-92
2023/10/12 02:21:40;;;;;;;0.40;0.40;;;;;;;;;;6187536;23;20174;-90
2023/10/12 02:24:13;;;;;;;0.40;0.40;;;;;;;;;;6185861;23;20169;-92
2023/10/12 02:26:52;;;;;;;0.40;0.40;;;;;;;;;;6187489;23;20177;-93
2023/10/12 02:29:21;;;;;;;0.30;0.30;;;;;;;;;;6185644;23;20243;-92
2023/10/12 02:32:06;;;;;;;0.40;0.40;;;;;;;;;;6185843;23;20207;-94
2023/10/12 02:34:41;;;;;;;0.30;0.30;;;;;;;;;;6186809;23;20239;-90
2023/10/12 02:37:18;;;;;;;0.30;0.30;;;;;;;;;;6187149;23;20174;-92
2023/10/12 02:39:48;;;;;;;0.30;0.30;;;;;;;;;;6187660;23;20178;-89
2023/10/12 02:42:18;;;;;;;0.30;0.30;;;;;;;;;;6186605;23;20178;-93
2023/10/12 02:47:34;;;;;;;0.40;0.40;;;;;;;;;;6187634;23;20177;-91
2023/10/12 02:50:08;;;;;;;0.40;0.40;;;;;;;;;;6187617;23;20174;-94
2023/10/12 02:52:37;;;;;;;0.30;0.30;;;;;;;;;;6185823;23;20172;-92
2023/10/12 02:55:18;;;;;;;0.30;0.30;;;;;;;;;;6187402;23;20195;-92
2023/10/12 02:57:54;;;;;;;0.40;0.40;;;;;;;;;;6186533;23;20185;-94
2023/10/12 03:00:24;;;;;;;0.40;0.40;;;;;;;;;;6188626;23;20233;-94
2023/10/12 04:30:42;;;;;;;0.30;0.30;;;;;;;;;;6192702;23;20209;-93
2023/10/12 04:33:14;;;;;;;0.40;0.40;;;;;;;;;;6157220;23;20177;-93
2023/10/12 04:36:09;;;;;;;0.30;0.30;;;;;;;;;;6156434;23;20189;-93
2023/10/12 04:38:56;;;;;;;0.40;0.40;;;;;;;;;;6156643;23;20259;-91
2023/10/12 04:41:37;;;;;;;0.30;0.30;;;;;;;;;;6157887;23;20192;-91
2023/10/12 04:46:58;;;;;;;0.30;0.30;;;;;;;;;;6155304;23;20208;-89
2023/10/12 04:49:54;;;;;;;0.40;0.40;;;;;;;;;;6156076;23;20173;-90
2023/10/12 04:55:20;;;;;;;0.40;0.40;;;;;;;;;;6157146;23;20250;-90
2023/10/12 05:00:48;;;;;;;0.40;0.40;;;;;;;;;;6156711;23;20182;-92
2023/10/12 05:03:33;;;;;;;0.30;0.30;;;;;;;;;;6156740;23;20185;-90
2023/10/12 05:06:04;;;;;;;0.40;0.40;;;;;;;;;;6155505;23;20277;-90
2023/10/12 05:08:34;;;;;;;0.40;0.40;;;;;;;;;;6156358;23;20227;-90
2023/10/12 05:11:06;;;;;;;0.40;0.40;;;;;;;;;;6156691;23;20268;-90
2023/10/12 05:13:34;;;;;;;0.30;0.30;;;;;;;;;;6156186;23;20175;-89
2023/10/12 05:16:06;;;;;;;0.40;0.40;;;;;;;;;;6153940;23;20240;-87
2023/10/12 05:18:37;;;;;;;0.37;0.37;;;;;;;;;;6153864;23;20193;-88
2023/10/12 05:21:08;;;;;;;0.40;0.40;;;;;;;;;;6154855;23;20168;-87
2023/10/12 05:23:39;;;;;;;0.40;0.40;;;;;;;;;;6154013;23;20177;-88
2023/10/12 05:26:10;;;;;;;0.40;0.40;;;;;;;;;;6154024;23;20175;-90
2023/10/12 05:31:27;;;;;;;0.30;0.30;;;;;;;;;;6148430;23;20208;-84
2023/10/12 05:36:46;;;;;;;0.30;0.30;;;;;;;;;;6153763;23;20197;-85
2023/10/12 05:39:16;;;;;;;0.37;0.37;;;;;;;;;;6153842;23;20177;-85
2023/10/12 05:41:47;;;;;;;0.40;0.40;;;;;;;;;;6153927;23;20179;-84
2023/10/12 05:44:26;;;;;;;0.40;0.40;;;;;;;;;;6152620;23;20209;-83
2023/10/12 05:46:59;;;;;;;0.40;0.40;;;;;;;;;;6153990;23;20178;-84
2023/10/12 05:49:33;;;;;;;0.30;0.30;;;;;;;;;;6154579;23;20277;-81
2023/10/12 05:52:05;;;;;;;0.40;0.40;;;;;;;;;;6153808;23;20185;-81
2023/10/12 05:54:34;;;;;;;0.40;0.40;;;;;;;;;;6153557;23;20182;-81
2023/10/12 05:57:07;;;;;;;0.40;0.40;;;;;;;;;;6154150;23;20200;-81
2023/10/12 05:59:38;;;;;;;0.40;0.40;;;;;;;;;;6154421;23;20177;-81
2023/10/12 06:02:09;;;;;;;0.40;0.40;;;;;;;;;;6153609;23;20179;-80
2023/10/12 06:04:39;;;;;;;0.40;0.40;;;;;;;;;;6153705;23;20246;-81
2023/10/12 06:07:08;;;;;;;0.40;0.40;;;;;;;;;;6154132;23;20187;-81
2023/10/12 06:09:37;;;;;;;0.40;0.40;;;;;;;;;;6153732;23;20173;-82
2023/10/12 06:12:07;;;;;;;0.30;0.30;;;;;;;;;;6154325;23;20187;-81
2023/10/12 06:14:37;;;;;;;0.40;0.40;;;;;;;;;;6153913;23;20179;-82
2023/10/12 06:17:06;;;;;;;0.40;0.40;;;;;;;;;;6153790;23;20200;-81
2023/10/12 06:19:36;;;;;;;0.40;0.40;;;;;;;;;;6154175;23;20203;-81
2023/10/12 06:22:19;;;;;;;0.40;0.40;;;;;;;;;;6154408;23;20176;-82
2023/10/12 06:24:52;;;;;;;0.40;0.40;;;;;;;;;;6153748;23;20172;-81
2023/10/12 06:27:24;;;;;;;0.40;0.40;;;;;;;;;;6153913;23;20220;-81
2023/10/12 06:29:54;;;;;;;0.40;0.40;;;;;;;;;;6153988;23;20184;-82
2023/10/12 06:32:31;;;;;;;0.30;0.30;;;;;;;;;;6153503;23;20208;-81
2023/10/12 06:35:13;;;;;;;0.40;0.40;;;;;;;;;;6154858;23;20258;-83
2023/10/12 06:40:38;;;;;;;0.30;0.30;;;;;;;;;;6126205;23;20218;-83
2023/10/12 06:45:54;;;;;;;0.40;0.40;;;;;;;;;;6091988;23;20177;-83
2023/10/12 06:48:23;;;;;;;0.40;0.40;;;;;;;;;;6155978;23;20199;-83
2023/10/12 06:51:02;;;;;;;0.40;0.40;;;;;;;;;;6155269;23;20229;-83
2023/10/12 06:53:34;;;;;;;0.40;0.40;;;;;;;;;;6155646;23;20182;-83
2023/10/12 06:56:16;;;;;;;0.37;0.37;;;;;;;;;;6155381;23;20169;-83
2023/10/12 06:58:45;;;;;;;0.30;0.30;;;;;;;;;;6155517;23;20186;-83
2023/10/12 07:01:18;;;;;;;0.40;0.40;;;;;;;;;;6155069;23;20195;-83
2023/10/12 07:03:48;;;;;;;0.30;0.30;;;;;;;;;;6155889;23;20180;-84
2023/10/12 07:06:16;;;;;;;0.37;0.37;;;;;;;;;;6155691;23;20228;-83
2023/10/12 07:08:47;;;;;;;0.30;0.30;;;;;;;;;;6155647;23;20184;-83
2023/10/12 07:11:16;;;;;;;0.30;0.30;;;;;;;;;;6155142;23;20188;-83
2023/10/12 07:13:45;;;;;;;0.40;0.40;;;;;;;;;;6156161;23;20196;-84
2023/10/12 07:16:15;;;;;;;0.30;0.30;;;;;;;;;;6155568;23;20193;-84
2023/10/12 07:18:44;;;;;;;0.30;0.30;;;;;;;;;;6155464;23;20204;-83
2023/10/12 07:21:21;;;;;;;0.30;0.30;;;;;;;;;;6156086;23;20279;-83
2023/10/12 07:23:52;;;;;;;0.30;0.30;;;;;;;;;;6156000;23;20287;-83
2023/10/12 07:26:21;;;;;;;0.30;0.30;;;;;;;;;;6155614;23;20254;-83
2023/10/12 07:28:50;;;;;;;0.30;0.30;;;;;;;;;;6155547;23;20188;-83
2023/10/12 07:34:05;;;;;;;0.30;0.30;;;;;;;;;;6150602;23;20505;-83
2023/10/12 07:36:44;;;;;;;0.30;0.30;;;;;;;;;;6155232;23;20233;-82
2023/10/12 07:39:17;;;;;;;0.40;0.40;;;;;;;;;;6155300;23;20186;-83
2023/10/12 07:41:53;;;;;;;0.30;0.30;;;;;;;;;;6155611;23;20186;-83
2023/10/12 07:44:23;;;;;;;0.30;0.30;;;;;;;;;;6155829;23;20177;-83
2023/10/12 07:46:51;;;;;;;0.30;0.30;;;;;;;;;;6154932;23;20178;-83
2023/10/12 07:49:36;;;;;;;0.30;0.30;;;;;;;;;;6155170;23;20177;-83
2023/10/12 07:52:13;;;;;;;0.30;0.30;;;;;;;;;;6155319;23;20177;-83
2023/10/12 07:54:55;;;;;;;0.40;0.40;;;;;;;;;;6155163;23;20174;-83
2023/10/12 07:57:29;;;;;;;0.40;0.40;;;;;;;;;;6154834;23;20192;-83
2023/10/12 08:00:29;;;;;;;0.40;0.40;;;;;;;;;;6155289;23;20223;-83
2023/10/12 08:08:34;;;;;;;0.30;0.30;;;;;;;;;;6155054;23;20178;-83
2023/10/12 08:11:18;;;;;;;0.33;0.33;;;;;;;;;;6155393;23;20177;-83
2023/10/12 08:13:54;;;;;;;0.40;0.40;;;;;;;;;;6155517;23;20173;-83
2023/10/12 08:16:27;;;;;;;0.40;0.40;;;;;;;;;;6155003;23;20174;-83
2023/10/12 08:21:44;;;;;;;0.30;0.30;;;;;;;;;;6154929;23;20197;-83
2023/10/12 08:24:24;;;;;;;0.40;0.40;;;;;;;;;;6155059;23;20229;-83
2023/10/12 08:27:02;;;;;;;0.30;0.30;;;;;;;;;;6154466;23;20178;-83
2023/10/12 08:32:27;;;;;;;0.30;0.30;;;;;;;;;;6154988;23;20206;-83
2023/10/12 08:35:16;;;;;;;0.30;0.30;;;;;;;;;;6154766;23;20209;-83
2023/10/12 08:40:30;;;;;;;0.40;0.40;;;;;;;;;;6155199;23;20241;-83
2023/10/12 08:43:06;;;;;;;0.40;0.40;;;;;;;;;;6155276;23;20182;-83
2023/10/12 08:45:37;;;;;;;0.30;0.30;;;;;;;;;;6154401;23;20186;-83
2023/10/12 08:48:09;;;;;;;0.30;0.30;;;;;;;;;;6155310;23;20175;-82
2023/10/12 08:51:06;;;;;;;0.40;0.40;;;;;;;;;;6155317;23;20185;-83
2023/10/12 08:53:35;;;;;;;0.40;0.40;;;;;;;;;;6155428;23;20186;-83
2023/10/12 08:56:08;;;;;;;0.30;0.30;;;;;;;;;;6154604;23;20209;-84
2023/10/12 08:58:42;;;;;;;0.30;0.30;;;;;;;;;;6154253;23;20208;-83
2023/10/12 09:01:20;;;;;;;0.30;0.30;;;;;;;;;;6155324;23;20186;-82
2023/10/12 09:03:53;;;;;;;0.30;0.30;;;;;;;;;;6155292;23;20206;-83
2023/10/12 09:09:05;;;;;;;0.30;0.30;;;;;;;;;;6154327;23;20171;-83
2023/10/12 09:11:34;;;;;;;0.40;0.40;;;;;;;;;;6154444;23;20186;-83
2023/10/12 09:14:12;;;;;;;0.30;0.30;;;;;;;;;;6154405;23;20184;-83
2023/10/12 09:16:43;;;;;;;0.30;0.30;;;;;;;;;;6154459;23;20207;-83
2023/10/12 09:19:26;;;;;;;0.30;0.30;;;;;;;;;;6154771;23;20213;-83
2023/10/12 09:21:59;;;;;;;0.30;0.30;;;;;;;;;;6154806;23;20211;-83
2023/10/12 09:24:29;;;;;;;0.30;0.30;;;;;;;;;;6154464;23;20178;-82
2023/10/12 09:27:00;;;;;;;0.30;0.30;;;;;;;;;;6154459;23;20183;-83
2023/10/12 09:29:42;;;;;;;0.30;0.30;;;;;;;;;;6153799;23;20174;-84
2023/10/12 09:32:15;;;;;;;0.30;0.30;;;;;;;;;;6153663;23;20217;-83
2023/10/12 09:34:44;;;;;;;0.30;0.30;;;;;;;;;;6154255;23;20179;-84
2023/10/12 09:37:19;;;;;;;0.30;0.30;;;;;;;;;;6154292;23;20178;-83
2023/10/12 09:39:48;;;;;;;0.30;0.30;;;;;;;;;;6154736;23;20173;-84
2023/10/12 09:42:23;;;;;;;0.30;0.30;;;;;;;;;;6153946;23;20175;-83
2023/10/12 09:45:01;;;;;;;0.30;0.30;;;;;;;;;;6154630;23;20190;-84
2023/10/12 09:47:43;;;;;;;0.30;0.30;;;;;;;;;;6155214;23;20172;-83
2023/10/12 09:50:16;;;;;;;0.30;0.30;;;;;;;;;;6155273;23;20186;-83
2023/10/12 09:52:57;;;;;;;0.30;0.30;;;;;;;;;;6154233;23;20179;-83
2023/10/12 09:55:32;;;;;;;0.30;0.30;;;;;;;;;;6154800;23;20178;-83
2023/10/12 09:58:14;;;;;;;0.30;0.30;;;;;;;;;;6154768;23;20245;-83
2023/10/12 10:01:01;;;;;;;0.30;0.30;;;;;;;;;;6154662;23;20185;-83
2023/10/12 10:03:38;;;;;;;0.30;0.30;;;;;;;;;;6154269;23;20199;-83
2023/10/12 10:06:19;;;;;;;0.30;0.30;;;;;;;;;;6154865;23;20180;-82
2023/10/12 10:09:04;;;;;;;0.30;0.30;;;;;;;;;;6154522;23;20202;-83
2023/10/12 10:11:33;;;;;;;0.30;0.30;;;;;;;;;;6153873;23;20233;-83
2023/10/12 10:14:04;;;;;;;0.30;0.30;;;;;;;;;;6154746;23;20182;-83
2023/10/12 10:16:46;;;;;;;0.30;0.30;;;;;;;;;;6154718;23;20174;-83
2023/10/12 10:19:16;;;;;;;0.30;0.30;;;;;;;;;;6154354;23;20211;-83
2023/10/12 10:21:50;;;;;;;0.30;0.30;;;;;;;;;;6154376;23;20186;-84
2023/10/12 10:24:24;;;;;;;0.30;0.30;;;;;;;;;;6154977;23;20175;-83
2023/10/12 10:26:58;;;;;;;0.30;0.30;;;;;;;;;;6154776;23;20178;-83
2023/10/12 10:29:44;;;;;;;0.30;0.30;;;;;;;;;;6155352;23;20202;-83
2023/10/12 10:32:16;;;;;;;0.30;0.30;;;;;;;;;;6154676;23;20214;-83
2023/10/12 10:34:45;;;;;;;0.30;0.30;;;;;;;;;;6155159;23;20175;-84
2023/10/12 10:37:15;;;;;;;0.30;0.30;;;;;;;;;;6154750;23;20187;-84
2023/10/12 10:39:44;;;;;;;0.30;0.30;;;;;;;;;;6154087;23;20229;-83
2023/10/12 10:42:14;;;;;;;0.30;0.30;;;;;;;;;;6154361;23;20170;-84
2023/10/12 10:44:42;;;;;;;0.30;0.30;;;;;;;;;;6154508;23;20183;-83
2023/10/12 10:47:15;;;;;;;0.30;0.30;;;;;;;;;;6154329;23;20273;-83
2023/10/12 10:49:48;;;;;;;0.30;0.30;;;;;;;;;;6153805;23;20186;-83
2023/10/12 10:52:20;;;;;;;0.30;0.30;;;;;;;;;;6154318;23;20195;-85
2023/10/12 10:54:59;;;;;;;0.30;0.30;;;;;;;;;;6154627;23;20205;-83
2023/10/12 10:57:38;;;;;;;0.30;0.30;;;;;;;;;;6154204;23;20189;-83
2023/10/12 11:00:17;;;;;;;0.30;0.30;;;;;;;;;;6154563;23;20203;-83
2023/10/12 11:02:49;;;;;;;0.30;0.30;;;;;;;;;;6153883;23;20175;-83
2023/10/12 11:05:19;;;;;;;0.40;0.40;;;;;;;;;;6154745;23;20258;-83
2023/10/12 11:07:52;;;;;;;0.30;0.30;;;;;;;;;;6154321;23;20185;-83
2023/10/12 11:10:31;;;;;;;0.30;0.30;;;;;;;;;;6154012;23;20183;-83
2023/10/12 11:13:04;;;;;;;0.30;0.30;;;;;;;;;;6152679;23;20225;-83
2023/10/12 11:15:36;;;;;;;0.30;0.30;;;;;;;;;;6154243;23;20207;-84
2023/10/12 11:18:15;;;;;;;0.30;0.30;;;;;;;;;;6153254;23;20172;-84
2023/10/12 11:20:57;;;;;;;0.30;0.30;;;;;;;;;;6154142;23;20176;-85
2023/10/12 11:23:25;;;;;;;0.30;0.30;;;;;;;;;;6154837;23;20233;-84
2023/10/12 11:26:05;;;;;;;0.30;0.30;;;;;;;;;;6153878;23;20187;-85
2023/10/12 11:28:34;;;;;;;0.30;0.30;;;;;;;;;;6150199;23;20228;-84
2023/10/12 11:31:20;;;;;;;0.30;0.30;;;;;;;;;;6153500;23;20214;-84
2023/10/12 11:33:50;;;;;;;0.30;0.30;;;;;;;;;;6153784;23;20237;-84
2023/10/12 11:36:23;;;;;;;0.30;0.30;;;;;;;;;;6153460;23;20174;-83
2023/10/12 11:39:03;;;;;;;0.30;0.30;;;;;;;;;;6150997;23;20207;-83
2023/10/12 11:41:31;;;;;;;0.30;0.30;;;;;;;;;;6154221;23;20303;-83
2023/10/12 11:44:05;;;;;;;0.30;0.30;;;;;;;;;;6153536;23;20172;-84
2023/10/12 11:46:43;;;;;;;0.30;0.30;;;;;;;;;;6154372;23;20206;-84
2023/10/12 11:49:12;;;;;;;0.30;0.30;;;;;;;;;;6153015;23;20175;-84
2023/10/12 11:51:50;;;;;;;0.30;0.30;;;;;;;;;;6153889;23;20206;-84
2023/10/12 11:54:32;;;;;;;0.30;0.30;;;;;;;;;;6152236;23;20179;-84
2023/10/12 11:57:04;;;;;;;0.30;0.30;;;;;;;;;;6152121;23;20212;-84
2023/10/12 11:59:35;;;;;;;0.30;0.30;;;;;;;;;;6150582;23;20199;-84
2023/10/12 12:02:08;;;;;;;0.30;0.30;;;;;;;;;;6152953;23;20193;-84
2023/10/12 12:04:41;;;;;;;0.30;0.30;;;;;;;;;;6152921;23;20186;-84
2023/10/12 12:07:26;;;;;;;0.40;0.40;;;;;;;;;;6153367;23;20185;-84
2023/10/12 12:10:00;;;;;;;0.30;0.30;;;;;;;;;;6152569;23;20174;-84
2023/10/12 12:12:29;;;;;;;0.30;0.30;;;;;;;;;;6153061;23;20199;-84
2023/10/12 12:14:57;;;;;;;0.30;0.30;;;;;;;;;;6152076;23;20262;-84
2023/10/12 12:17:27;;;;;;;0.30;0.30;;;;;;;;;;6151978;23;20504;-84
2023/10/12 12:19:59;;;;;;;0.30;0.30;;;;;;;;;;6151084;23;20209;-84
2023/10/12 12:22:42;;;;;;;0.30;0.30;;;;;;;;;;6151722;23;20202;-84
2023/10/12 12:25:23;;;;;;;0.30;0.30;;;;;;;;;;6151905;23;20176;-86
2023/10/12 12:28:01;;;;;;;0.30;0.30;;;;;;;;;;6153133;23;20183;-84
2023/10/12 12:30:33;;;;;;;0.40;0.40;;;;;;;;;;6154514;23;20205;-84
2023/10/12 12:33:08;;;;;;;0.30;0.30;;;;;;;;;;6151899;23;20182;-83
2023/10/12 12:35:38;;;;;;;0.30;0.30;;;;;;;;;;6151804;23;20191;-82
2023/10/12 12:38:30;;;;;;;0.40;0.40;;;;;;;;;;6153981;23;20210;-84
2023/10/12 12:41:05;;;;;;;0.30;0.30;;;;;;;;;;6152206;23;20206;-83
2023/10/12 12:43:34;;;;;;;0.30;0.30;;;;;;;;;;6154370;23;20174;-82
2023/10/12 12:46:05;;;;;;;0.40;0.40;;;;;;;;;;6152935;23;20175;-84
2023/10/12 12:48:37;;;;;;;0.30;0.30;;;;;;;;;;6154383;23;20186;-85
2023/10/12 12:51:10;;;;;;;0.30;0.30;;;;;;;;;;6152521;23;20174;-82
2023/10/12 12:53:40;;;;;;;0.30;0.30;;;;;;;;;;6152578;23;20178;-83
2023/10/12 12:56:10;;;;;;;0.40;0.40;;;;;;;;;;6151155;23;20177;-83
2023/10/12 12:58:46;;;;;;;0.30;0.30;;;;;;;;;;6152002;23;20221;-83
2023/10/12 13:01:16;;;;;;;0.30;0.30;;;;;;;;;;6150828;23;20179;-83
2023/10/12 13:03:45;;;;;;;0.30;0.30;;;;;;;;;;6153406;23;20261;-84
2023/10/12 13:06:15;;;;;;;0.33;0.33;;;;;;;;;;6151909;23;20225;-84
2023/10/12 13:08:45;;;;;;;0.40;0.40;;;;;;;;;;6152434;23;20174;-85
2023/10/12 13:11:18;;;;;;;0.40;0.40;;;;;;;;;;6152273;23;20198;-84
2023/10/12 13:13:47;;;;;;;0.40;0.40;;;;;;;;;;6152691;23;20178;-84
2023/10/12 13:16:17;;;;;;;0.40;0.40;;;;;;;;;;6152834;23;20275;-85
2023/10/12 13:18:47;;;;;;;0.40;0.40;;;;;;;;;;6151612;23;20198;-86
2023/10/12 13:21:17;;;;;;;0.40;0.40;;;;;;;;;;6151968;23;20195;-84
2023/10/12 13:23:47;;;;;;;0.30;0.30;;;;;;;;;;6153662;23;20181;-84
2023/10/12 13:26:19;;;;;;;0.30;0.30;;;;;;;;;;6151288;23;20181;-85
2023/10/12 13:28:48;;;;;;;0.30;0.30;;;;;;;;;;6152618;23;20190;-83
2023/10/12 13:31:16;;;;;;;0.30;0.30;;;;;;;;;;6152561;23;20291;-85
2023/10/12 13:33:47;;;;;;;0.30;0.30;;;;;;;;;;6152342;23;20248;-84
2023/10/12 13:36:16;;;;;;;0.40;0.40;;;;;;;;;;6152837;23;20252;-83
2023/10/12 13:38:45;;;;;;;0.40;0.40;;;;;;;;;;6154423;23;20229;-87
2023/10/12 13:41:15;;;;;;;0.40;0.40;;;;;;;;;;6152532;23;20194;-86
2023/10/12 13:43:48;;;;;;;0.40;0.40;;;;;;;;;;6152731;23;20176;-83
2023/10/12 13:46:17;;;;;;;0.40;0.40;;;;;;;;;;6153112;23;20553;-85
2023/10/12 13:48:48;;;;;;;0.30;0.30;;;;;;;;;;6152589;23;20175;-86
2023/10/12 13:51:22;;;;;;;0.30;0.30;;;;;;;;;;6152628;23;20171;-86
2023/10/12 13:53:51;;;;;;;0.30;0.30;;;;;;;;;;6153328;23;20180;-86
2023/10/12 13:56:23;;;;;;;0.40;0.40;;;;;;;;;;6154109;23;20170;-83
2023/10/12 13:58:57;;;;;;;0.40;0.40;;;;;;;;;;6152527;23;20190;-85
2023/10/12 14:01:33;;;;;;;0.40;0.40;;;;;;;;;;6152367;23;20198;-84
2023/10/12 14:04:21;;;;;;;0.40;0.40;;;;;;;;;;6153206;23;20173;-85
2023/10/12 14:06:52;;;;;;;0.40;0.40;;;;;;;;;;6153187;23;20260;-84
2023/10/12 14:09:27;;;;;;;0.30;0.30;;;;;;;;;;6154427;23;20186;-87
2023/10/12 14:11:58;;;;;;;0.30;0.30;;;;;;;;;;6153182;23;20174;-88
2023/10/12 14:14:28;;;;;;;0.30;0.30;;;;;;;;;;6152128;23;20201;-86
2023/10/12 14:16:58;;;;;;;0.33;0.33;;;;;;;;;;6152238;23;20183;-88
2023/10/12 14:19:27;;;;;;;0.40;0.40;;;;;;;;;;6151675;23;20197;-87
2023/10/12 14:21:59;;;;;;;0.30;0.30;;;;;;;;;;6152072;23;20190;-85
2023/10/12 14:24:33;;;;;;;0.40;0.40;;;;;;;;;;6153786;23;20200;-88
2023/10/12 14:27:06;;;;;;;0.40;0.40;;;;;;;;;;6151850;23;20173;-87
2023/10/12 14:29:36;;;;;;;0.40;0.40;;;;;;;;;;6151718;23;20177;-89
2023/10/12 14:32:05;;;;;;;0.37;0.37;;;;;;;;;;6153381;23;20301;-87
2023/10/12 14:34:34;;;;;;;0.40;0.40;;;;;;;;;;6150080;23;20170;-88
2023/10/12 14:37:15;;;;;;;0.30;0.30;;;;;;;;;;6150104;23;20200;-88
2023/10/12 14:39:46;;;;;;;0.40;0.40;;;;;;;;;;6152418;23;20178;-87
2023/10/12 14:42:16;;;;;;;0.40;0.40;;;;;;;;;;6151481;23;20183;-88
2023/10/12 14:44:48;;;;;;;0.40;0.40;;;;;;;;;;6154173;23;20178;-87
2023/10/12 14:47:17;;;;;;;0.37;0.37;;;;;;;;;;6153584;23;20175;-87
2023/10/12 14:49:48;;;;;;;0.30;0.30;;;;;;;;;;6153414;23;20174;-87
2023/10/12 14:52:17;;;;;;;0.40;0.40;;;;;;;;;;6154270;23;20175;-88
2023/10/12 14:54:48;;;;;;;0.40;0.40;;;;;;;;;;6153373;23;20197;-88
2023/10/12 14:57:18;;;;;;;0.40;0.40;;;;;;;;;;6155797;23;20175;-88
2023/10/12 14:59:55;;;;;;;0.40;0.40;;;;;;;;;;6155829;23;20179;-88
2023/10/12 15:02:25;;;;;;;1.00;1.00;;;;;;;;;;6154946;23;20192;-88
2023/10/12 15:04:54;;;;;;;0.40;0.40;;;;;;;;;;6154462;23;20189;-88
2023/10/12 15:07:24;;;;;;;0.40;0.40;;;;;;;;;;6155060;23;20453;-88
2023/10/12 15:09:52;;;;;;;0.40;0.40;;;;;;;;;;6155528;23;20179;-88
2023/10/12 15:12:23;;;;;;;0.40;0.40;;;;;;;;;;6155684;23;20178;-88
2023/10/12 15:14:54;;;;;;;0.30;0.30;;;;;;;;;;6155182;23;20366;-88
2023/10/12 15:17:22;;;;;;;0.40;0.40;;;;;;;;;;6155091;23;20220;-87
2023/10/12 15:19:51;;;;;;;0.30;0.30;;;;;;;;;;6155326;23;20260;-88
2023/10/12 15:22:21;;;;;;;0.30;0.30;;;;;;;;;;6155290;23;20217;-87
2023/10/12 15:24:50;;;;;;;0.40;0.40;;;;;;;;;;6155438;23;20210;-87
2023/10/12 15:27:19;;;;;;;0.40;0.40;;;;;;;;;;6154340;23;20186;-87
2023/10/12 15:29:49;;;;;;;0.40;0.40;;;;;;;;;;6155312;23;20181;-87
2023/10/12 15:32:18;;;;;;;0.30;0.30;;;;;;;;;;6154993;23;20213;-88
2023/10/12 15:34:46;;;;;;;0.40;0.40;;;;;;;;;;6154981;23;20178;-88
2023/10/12 15:37:16;;;;;;;0.30;0.30;;;;;;;;;;6154617;23;20198;-88
2023/10/12 15:39:47;;;;;;;0.30;0.30;;;;;;;;;;6154797;23;20270;-88
2023/10/12 15:42:15;;;;;;;0.30;0.30;;;;;;;;;;6155174;23;20188;-88
2023/10/12 15:44:44;;;;;;;0.40;0.40;;;;;;;;;;6154704;23;20291;-88
2023/10/12 15:47:14;;;;;;;0.40;0.40;;;;;;;;;;6154959;23;20182;-88
2023/10/12 15:49:42;;;;;;;3.30;3.20;;;;;;;;;;6155414;23;20262;-88
2023/10/12 15:52:11;;;;;;;0.40;0.40;;;;;;;;;;6155143;23;20492;-88
2023/10/12 15:54:48;;;;;;;1.23;1.23;;;;;;;;;;6154539;23;20273;-88
2023/10/12 15:57:17;;;;;;;0.40;0.40;;;;;;;;;;6154335;23;20183;-87
2023/10/12 15:59:46;;;;;;;0.40;0.40;;;;;;;;;;6154642;23;20187;-87
2023/10/12 16:02:16;;;;;;;0.40;0.40;;;;;;;;;;6154824;23;20194;-87
2023/10/12 16:04:48;;;;;;;0.40;0.40;;;;;;;;;;6154430;23;20184;-88
2023/10/12 16:07:18;;;;;;;0.83;0.83;;;;;;;;;;6155285;23;20230;-88
2023/10/12 16:09:49;;;;;;;0.40;0.40;;;;;;;;;;6154837;23;20265;-88
2023/10/12 16:12:19;;;;;;;0.40;0.40;;;;;;;;;;6154580;23;20410;-88
2023/10/12 16:14:50;;;;;;;0.40;0.40;;;;;;;;;;6154410;23;20181;-88
2023/10/12 16:17:22;;;;;;;0.40;0.40;;;;;;;;;;6155210;23;20174;-88
2023/10/12 16:19:51;;;;;;;0.30;0.30;;;;;;;;;;6154609;23;20198;-88
2023/10/12 16:22:19;;;;;;;0.30;0.30;;;;;;;;;;6154546;23;20269;-88
2023/10/12 16:24:49;;;;;;;0.40;0.40;;;;;;;;;;6153946;23;20179;-88
2023/10/12 16:27:18;;;;;;;0.40;0.40;;;;;;;;;;6155094;23;20182;-87
2023/10/12 16:29:46;;;;;;;0.47;0.47;;;;;;;;;;6154439;23;20184;-88
2023/10/12 16:32:29;;;;;;;0.40;0.40;;;;;;;;;;6156295;23;20205;-89
2023/10/12 16:34:58;;;;;;;0.40;0.40;;;;;;;;;;6159128;23;20176;-88
2023/10/12 16:37:29;;;;;;;0.40;0.40;;;;;;;;;;6157438;23;20257;-88
2023/10/12 16:39:58;;;;;;;0.40;0.40;;;;;;;;;;6158383;23;20174;-88
2023/10/12 16:42:26;;;;;;;0.40;0.40;;;;;;;;;;6154296;23;20194;-87
2023/10/12 16:45:01;;;;;;;0.40;0.40;;;;;;;;;;6154081;23;20180;-88
2023/10/12 16:47:34;;;;;;;0.40;0.40;;;;;;;;;;6154401;23;20173;-88
2023/10/12 16:50:02;;;;;;;0.40;0.40;;;;;;;;;;6154260;23;20174;-87
2023/10/12 16:52:31;;;;;;;0.40;0.40;;;;;;;;;;6153665;23;20174;-86
2023/10/12 16:55:00;;;;;;;0.40;0.40;;;;;;;;;;6154258;23;20179;-87
2023/10/12 16:57:29;;;;;;;0.40;0.40;;;;;;;;;;6154095;23;20199;-88
2023/10/12 16:59:57;;;;;;;0.40;0.40;;;;;;;;;;6154173;23;20171;-88
2023/10/12 17:02:26;;;;;;;0.40;0.40;;;;;;;;;;6153641;23;20191;-87
2023/10/12 17:04:59;;;;;;;0.40;0.40;;;;;;;;;;6154068;23;20183;-88
2023/10/12 17:07:28;;;;;;;0.30;0.30;;;;;;;;;;6154175;23;20201;-88
2023/10/12 17:09:58;;;;;;;0.40;0.40;;;;;;;;;;6154177;23;20189;-87
2023/10/12 17:12:28;;;;;;;0.40;0.40;;;;;;;;;;6153888;23;20177;-88
2023/10/12 17:14:58;;;;;;;0.40;0.40;;;;;;;;;;6154040;23;20183;-88
2023/10/12 17:17:27;;;;;;;0.40;0.40;;;;;;;;;;6154983;23;20175;-88
2023/10/12 17:19:59;;;;;;;0.40;0.40;;;;;;;;;;6153327;23;20206;-88
2023/10/12 17:22:27;;;;;;;0.40;0.40;;;;;;;;;;6154105;23;20201;-88
2023/10/12 17:24:56;;;;;;;0.30;0.30;;;;;;;;;;6154133;23;20178;-87
2023/10/12 17:27:24;;;;;;;0.40;0.40;;;;;;;;;;6154925;23;20225;-90
2023/10/12 17:29:54;;;;;;;0.40;0.40;;;;;;;;;;6155234;23;20257;-91
2023/10/12 17:32:24;;;;;;;0.40;0.40;;;;;;;;;;6158364;23;20216;-90
2023/10/12 17:34:55;;;;;;;0.40;0.40;;;;;;;;;;6155229;23;20190;-90
2023/10/12 17:37:25;;;;;;;1.90;1.90;;;;;;;;;;6155664;23;20184;-91
2023/10/12 17:39:53;;;;;;;0.30;0.30;;;;;;;;;;6155076;23;20423;-91
2023/10/12 17:42:24;;;;;;;0.40;0.40;;;;;;;;;;6154917;23;20284;-90
2023/10/12 17:44:53;;;;;;;0.40;0.40;;;;;;;;;;6154823;23;20182;-90